Accueil
METAR-TAF:

METAR-TAF

Aéroports :

Marham, Angleterre

latitude: 52-39N, longitude: 000-34E, altitude: 23 m

Observation

Le bulletin a été fait il y a 1 heure et 7 minutes, à 03:50 UTC
Vent 6 kt de sud/sud-est
Température 12°C
Humidité 100%
Pression 1010 hPa
Visibilité 10 km ou plus
Quelques nuages à une hauteur de 4000 ft
Nuages épars à une hauteur de 10000 ft

METAR: EGYM 300350Z 15006KT 9999 FEW040 SCT100 12/12 Q1010 BLU

Heure: 05:57 (04:57 UTC)


TAF: absent

Observations et prévisions météorologiques de plus de 4000 aéroports (messages METAR et TAF).

Les stations disponibles sont représentées par des disques jaunes et rouges sur la carte.

Passer la souris dessus pour voir le nom de la station.

Cliquer dessus pour voir les observations et prévisions météorologiques.

Pour changer de carte: cliquez sur les boutons verts avec une croix noire pour zoomer, sur le bouton vert avec un tiret pour effectuer un zoom arrière, ou sur les flèches vertes pour les cartes adjacentes.


METAR-TAF: